KCPW

Wolf Creek Pass Airport

Pagosa Springs, Colorado, USA
METAR KCPW 202012Z AUTO 22008G16KT 190V270 10SM CLR 15/02 A3070 RMK AO2
Observed Flight Rules
Aug-20 @ 20:12 UTC (19 minutes ago) Visual Flight Rules
Wind Visibility Clouds
220° at 8 knots
 Gusting to 16 knots
10 miles
  • Clear skies
Temperatures Readings
Current 15°C / 59°F
Dewpoint 2°C / 36°F
Humidity 42%
Altimeter 30.7" Hg
Pressure 1040 hPa
Elevation 3584
METAR KCPW 202012Z AUTO 22008G16KT 190V270 10SM CLR 15/02 A3070 RMK AO2
Observed Flight Rules
Aug-20 @ 20:12 UTC
(19 minutes ago)
VFR
Wind Visibility
220° at 8 knots
 Gusting to 16 knots
10 miles
Clouds
  • Clear skies
Temperature Dewpoint
15°C / 59°F 2°C / 36°F
Humidity Altimeter Pressure
42% 30.7" Hg 1040 hPa